CDT,Max TemperatureF,Mean TemperatureF,Min TemperatureF,Max Dew PointF,MeanDew PointF,Min DewpointF,Max Humidity, Mean Humidity, Min Humidity, Max Sea Level PressureIn, Mean Sea Level PressureIn, Min Sea Level PressureIn, Max VisibilityMiles, Mean VisibilityMiles, Min VisibilityMiles, Max Wind SpeedMPH, Mean Wind SpeedMPH, Max Gust SpeedMPH,PrecipitationIn, CloudCover, Events, WindDirDegrees
2013-5-1,68,50,33,57,45,34,100,89,60,30.35,30.02,29.73,10,7,2,34,20,43,0.23,6,Rain-Snow-Thunderstorm,32
2013-5-2,53,42,32,34,30,23,100,75,33,30.53,30.45,30.34,10,8,1,34,26,43,0.00,6,Snow,4
2013-5-3,59,46,32,32,28,21,93,60,25,30.42,30.21,30.05,10,10,10,20,10,29,0.00,1,,337
2013-5-4,55,44,32,36,31,27,87,63,36,30.14,30.04,30.01,10,10,10,34,15,41,0.00,4,,351
2013-5-5,64,52,41,46,41,36,100,71,45,30.21,30.15,30.09,10,10,2,17,11,22,0.00,4,,15
2013-5-6,69,55,41,50,45,41,100,72,37,30.17,30.11,30.04,10,8,0,8,3,,0.00,1,Fog,122
2013-5-7,71,61,51,54,51,46,94,72,46,30.09,30.00,29.86,10,10,5,33,10,53,0.04,4,Rain-Thunderstorm,163
2013-5-8,77,66,55,59,53,48,94,67,44,29.98,29.89,29.80,10,10,3,29,13,36,0.42,3,Rain-Thunderstorm,151
2013-5-9,69,60,50,55,52,48,100,73,49,30.06,29.98,29.90,10,10,7,16,9,23,0.00,2,,350
2013-5-10,69,60,50,52,48,43,100,69,38,30.16,30.10,30.05,10,9,5,20,10,24,0.00,2,,13
2013-5-11,68,57,46,48,39,30,93,57,26,30.31,30.24,30.15,10,10,10,26,9,34,0.00,0,,6
2013-5-12,73,57,41,46,40,36,81,56,31,30.29,30.17,30.04,10,10,10,22,8,28,0.00,0,,173
2013-5-13,86,64,42,57,48,43,100,58,25,30.09,30.05,29.98,10,10,10,15,7,16,0.00,0,,153
2013-5-14,89,74,60,54,44,39,68,35,19,29.97,29.91,29.83,10,10,10,29,15,34,0.00,0,,212
2013-5-15,80,68,57,61,54,48,94,62,32,29.88,29.86,29.82,10,10,10,21,14,29,0.00,0,,178
2013-5-16,75,66,57,61,58,55,100,79,53,29.93,29.87,29.81,10,7,0,14,5,21,0.00,4,Fog,137
2013-5-17,80,68,55,66,60,55,100,77,48,29.92,29.88,29.84,10,8,0,16,8,24,0.00,3,Fog,152
2013-5-18,87,74,62,72,65,54,100,76,45,29.88,29.77,29.62,10,6,1,24,12,37,0.31,5,Rain-Thunderstorm,151
2013-5-19,78,66,55,64,57,52,94,71,50,29.78,29.66,29.57,10,10,2,25,12,55,0.39,3,Rain-Thunderstorm,171
2013-5-20,73,62,51,59,52,45,94,73,44,29.86,29.77,29.69,10,10,7,14,6,22,0.00,2,Rain,299
2013-5-21,71,60,50,48,44,37,82,56,33,29.90,29.85,29.77,10,10,10,21,9,30,0.00,2,,318
2013-5-22,78,62,46,54,46,43,93,60,28,29.98,29.92,29.87,10,10,10,15,8,20,0.00,0,,326
2013-5-23,68,60,51,55,51,46,88,75,56,30.17,30.11,29.98,10,10,4,16,9,24,0.10,4,Rain-Thunderstorm,84
2013-5-24,73,63,53,68,59,54,100,84,68,30.21,30.14,30.05,10,10,7,18,11,26,0.00,6,,140
2013-5-25,80,71,62,68,61,59,94,71,48,30.10,30.04,29.94,10,9,5,26,18,36,0.00,1,,179
2013-5-26,86,75,64,66,64,61,94,72,43,29.99,29.91,29.83,10,10,7,26,17,33,0.00,3,,171
2013-5-27,89,78,68,66,64,63,88,66,40,29.83,29.69,29.58,10,10,10,32,23,43,0.00,0,,177
2013-5-28,89,78,68,66,63,52,88,66,38,29.75,29.66,29.59,10,10,10,25,13,39,0.00,1,Rain-Thunderstorm,187
2013-5-29,75,67,59,68,62,54,100,80,69,29.71,29.62,29.49,10,10,1,31,20,44,1.16,4,Rain-Thunderstorm,167
2013-5-30,78,66,55,63,57,54,100,76,44,29.72,29.65,29.54,10,9,2,23,12,36,1.70,3,Rain-Thunderstorm,121
2013-5-31,80,71,62,64,56,45,100,66,30,29.82,29.75,29.66,10,8,0,13,6,,0.00,2,Fog,21